createdAt,value
2022-08-04T00:00:17.004Z,95121.56
2022-08-04T00:03:19.885Z,95122.09
2022-08-04T00:05:50.398Z,95121.28
2022-08-04T00:08:29.781Z,95115.94
2022-08-04T00:11:00.456Z,95110.84
2022-08-04T00:13:31.808Z,95106.84
2022-08-04T00:16:08.162Z,95114.34
2022-08-04T00:18:50.916Z,95117.25
2022-08-04T00:21:21.948Z,95110.31
2022-08-04T00:24:10.536Z,95116.47
2022-08-04T00:26:40.406Z,95105.50
2022-08-04T00:29:07.834Z,95109.22
2022-08-04T00:31:57.142Z,95104.41
2022-08-04T00:34:26.392Z,95107.59
2022-08-04T00:36:55.984Z,95110.28
2022-08-04T00:39:24.842Z,95098.25
2022-08-04T00:42:27.252Z,95104.66
2022-08-04T00:45:08.904Z,95104.38
2022-08-04T00:48:15.589Z,95100.34
2022-08-04T00:51:10.840Z,95102.94
2022-08-04T00:54:13.309Z,95102.41
2022-08-04T00:56:58.534Z,95103.72
2022-08-04T01:00:10.525Z,95110.09
2022-08-04T01:03:18.720Z,95111.97
2022-08-04T01:06:07.390Z,95115.69
2022-08-04T01:09:23.088Z,95111.63
2022-08-04T01:12:19.013Z,95111.88
2022-08-04T01:15:08.504Z,95110.53
2022-08-04T01:18:37.351Z,95111.03
2022-08-04T01:21:07.333Z,95113.94
2022-08-04T01:23:46.179Z,95109.94
2022-08-04T01:26:53.813Z,95111.50
2022-08-04T01:29:29.350Z,95109.34
2022-08-04T01:32:35.418Z,95106.66
2022-08-04T01:35:07.737Z,95109.34
2022-08-04T01:38:21.049Z,95107.94
2022-08-04T01:40:59.685Z,95106.88
2022-08-04T01:43:30.721Z,95106.06
2022-08-04T01:46:05.011Z,95113.78
2022-08-04T01:48:33.121Z,95099.31
2022-08-04T01:51:08.305Z,95101.97
2022-08-04T01:53:43.555Z,95109.69
2022-08-04T01:56:12.935Z,95106.50
2022-08-04T01:58:41.237Z,95113.94
2022-08-04T02:01:13.847Z,95102.41
2022-08-04T02:04:20.377Z,95113.09
2022-08-04T02:07:01.004Z,95114.66
2022-08-04T02:10:15.718Z,95105.31
2022-08-04T02:12:51.325Z,95100.16
2022-08-04T02:15:59.182Z,95098.53
2022-08-04T02:19:02.400Z,95101.72
2022-08-04T02:21:42.282Z,95093.91
2022-08-04T02:24:16.837Z,95096.84
2022-08-04T02:26:50.529Z,95098.41
2022-08-04T02:29:29.227Z,95091.97
2022-08-04T02:32:08.453Z,95097.00
2022-08-04T02:35:04.137Z,95096.97
2022-08-04T02:37:35.430Z,95092.69
2022-08-04T02:40:07.127Z,95090.53
2022-08-04T02:42:35.358Z,95085.44
2022-08-04T02:45:05.347Z,95084.06
2022-08-04T02:48:19.401Z,95080.63
2022-08-04T02:50:28.478Z,95076.59
2022-08-04T02:53:00.622Z,95069.09
2022-08-04T02:55:30.567Z,95066.94
2022-08-04T02:57:59.422Z,95066.13
2022-08-04T03:00:27.365Z,95074.38
2022-08-04T03:03:26.507Z,95071.16
2022-08-04T03:06:10.637Z,95076.41
2022-08-04T03:09:11.437Z,95071.81
2022-08-04T03:12:15.432Z,95068.31
2022-08-04T03:15:25.429Z,95073.09
2022-08-04T03:18:28.032Z,95072.22
2022-08-04T03:21:23.114Z,95074.34
2022-08-04T03:24:19.608Z,95082.56
2022-08-04T03:27:39.044Z,95080.13
2022-08-04T03:30:12.131Z,95068.63
2022-08-04T03:33:08.498Z,95074.47
2022-08-04T03:36:27.289Z,95068.84
2022-08-04T03:39:44.862Z,95072.00
2022-08-04T03:42:42.414Z,95077.59
2022-08-04T03:45:37.222Z,95077.28
2022-08-04T03:48:45.152Z,95081.50
2022-08-04T03:51:58.487Z,95082.28
2022-08-04T03:55:09.482Z,95082.22
2022-08-04T03:57:47.445Z,95073.19
2022-08-04T04:00:26.380Z,95077.69
2022-08-04T04:03:29.119Z,95080.94
2022-08-04T04:06:45.326Z,95076.66
2022-08-04T04:09:54.817Z,95079.06
2022-08-04T04:13:14.864Z,95066.00
2022-08-04T04:16:14.739Z,95068.97
2022-08-04T04:19:22.393Z,95067.44
2022-08-04T04:22:38.542Z,95061.59
2022-08-04T04:25:43.744Z,95071.78
2022-08-04T04:28:45.795Z,95069.16
2022-08-04T04:31:43.696Z,95074.28
2022-08-04T04:34:46.194Z,95083.13
2022-08-04T04:37:34.873Z,95081.88
2022-08-04T04:40:32.950Z,95076.63
2022-08-04T04:43:51.634Z,95078.03
2022-08-04T04:46:43.408Z,95083.16
2022-08-04T04:49:34.937Z,95089.94
2022-08-04T04:52:38.949Z,95090.53
2022-08-04T04:55:27.166Z,95085.81
2022-08-04T04:57:58.628Z,95090.41
2022-08-04T05:00:55.942Z,95090.75
2022-08-04T05:03:48.202Z,95091.88
2022-08-04T05:06:54.321Z,95092.22
2022-08-04T05:10:03.180Z,95091.50
2022-08-04T05:14:32.385Z,95090.78
2022-08-04T05:15:53.975Z,95084.72
2022-08-04T05:18:28.480Z,95094.41
2022-08-04T05:21:36.932Z,95089.91
2022-08-04T05:24:09.725Z,95093.97
2022-08-04T05:26:45.309Z,95094.84
2022-08-04T05:29:22.465Z,95099.97
2022-08-04T05:32:03.131Z,95093.88
2022-08-04T05:34:38.137Z,95098.19
2022-08-04T05:37:12.176Z,95093.19
2022-08-04T05:40:09.760Z,95090.78
2022-08-04T05:42:40.173Z,95095.09
2022-08-04T05:45:10.041Z,95095.38
2022-08-04T05:47:38.161Z,95104.22
2022-08-04T05:50:07.469Z,95095.13
2022-08-04T05:52:37.655Z,95104.75
2022-08-04T05:55:06.078Z,95098.91
2022-08-04T05:57:34.110Z,95089.81
2022-08-04T06:00:19.747Z,95097.06
2022-08-04T06:02:54.477Z,95100.50
2022-08-04T06:05:23.166Z,95099.19
2022-08-04T06:08:12.169Z,95105.34
2022-08-04T06:10:40.338Z,95098.34
2022-08-04T06:13:48.317Z,95102.63
2022-08-04T06:16:12.611Z,95115.22
2022-08-04T06:20:02.029Z,95107.13
2022-08-04T06:21:51.016Z,95109.81
2022-08-04T06:24:23.129Z,95101.16
2022-08-04T06:26:52.932Z,95090.44
2022-08-04T06:29:36.080Z,95093.34
2022-08-04T06:32:31.797Z,95093.00
2022-08-04T06:35:05.731Z,95094.88
2022-08-04T06:37:42.229Z,95091.91
2022-08-04T06:40:29.613Z,95096.41
2022-08-04T06:43:02.009Z,95090.47
2022-08-04T06:45:30.264Z,95099.78
2022-08-04T06:47:58.807Z,95093.88
2022-08-04T06:51:27.926Z,95101.31
2022-08-04T06:53:14.953Z,95087.53
2022-08-04T06:55:46.500Z,95097.41
2022-08-04T06:58:15.369Z,95094.91
2022-08-04T07:00:44.990Z,95094.63
2022-08-04T07:03:13.192Z,95094.03
2022-08-04T07:05:41.537Z,95092.91
2022-08-04T07:08:11.421Z,95092.78
2022-08-04T07:10:39.630Z,95087.09
2022-08-04T07:13:08.033Z,95081.91
2022-08-04T07:15:37.014Z,95088.47
2022-08-04T07:18:05.286Z,95107.22
2022-08-04T07:20:36.278Z,95093.41
2022-08-04T07:23:05.979Z,95089.53
2022-08-04T07:26:01.063Z,95104.69
2022-08-04T07:28:29.642Z,95097.28
2022-08-04T07:30:58.589Z,95097.97
2022-08-04T07:33:28.960Z,95101.31
2022-08-04T07:36:04.769Z,95093.13
2022-08-04T07:38:50.602Z,95095.38
2022-08-04T07:41:40.627Z,95091.75
2022-08-04T07:44:09.269Z,95093.69
2022-08-04T07:46:37.524Z,95094.34
2022-08-04T07:49:06.428Z,95095.25
2022-08-04T07:51:36.626Z,95090.53
2022-08-04T07:54:09.579Z,95087.47
2022-08-04T07:56:40.165Z,95088.09
2022-08-04T07:59:09.693Z,95095.19
2022-08-04T08:01:37.813Z,95091.50
2022-08-04T08:04:10.657Z,95096.19
2022-08-04T08:06:43.204Z,95092.81
2022-08-04T08:09:17.116Z,95088.66
2022-08-04T08:12:36.578Z,95085.25
2022-08-04T08:14:36.630Z,95085.84
2022-08-04T08:17:05.965Z,95092.44
2022-08-04T08:19:34.871Z,95091.72
2022-08-04T08:22:02.923Z,95089.63
2022-08-04T08:24:34.881Z,95089.69
2022-08-04T08:27:06.254Z,95077.72
2022-08-04T08:29:37.927Z,95064.72
2022-08-04T08:32:13.948Z,95080.91
2022-08-04T08:34:43.457Z,95072.38
2022-08-04T08:37:42.134Z,95077.66
2022-08-04T08:40:40.123Z,95075.31
2022-08-04T08:44:04.612Z,95087.59
2022-08-04T08:46:55.981Z,95074.47
2022-08-04T08:50:17.939Z,95077.84
2022-08-04T08:53:28.257Z,95078.25
2022-08-04T08:56:51.728Z,95080.03
2022-08-04T09:00:05.525Z,95068.78
2022-08-04T09:03:11.092Z,95079.94
2022-08-04T09:06:26.291Z,95086.31
2022-08-04T09:09:40.949Z,95086.22
2022-08-04T09:12:47.593Z,95088.78
2022-08-04T09:15:58.344Z,95085.34
2022-08-04T09:18:40.586Z,95082.66
2022-08-04T09:21:15.069Z,95086.00
2022-08-04T09:23:47.769Z,95078.59
2022-08-04T09:27:00.096Z,95085.28
2022-08-04T09:29:40.005Z,95078.97
2022-08-04T09:32:59.414Z,95071.94
2022-08-04T09:35:59.922Z,95072.28
2022-08-04T09:39:02.575Z,95079.16
2022-08-04T09:42:13.616Z,95075.53
2022-08-04T09:45:17.845Z,95069.16
2022-08-04T09:48:10.154Z,95069.97
2022-08-04T09:50:50.007Z,95066.34
2022-08-04T09:53:54.676Z,95067.31
2022-08-04T09:56:42.008Z,95061.59
2022-08-04T09:59:11.898Z,95078.97
2022-08-04T10:01:43.366Z,95071.84
2022-08-04T10:04:15.232Z,95064.81
2022-08-04T10:07:07.839Z,95069.28
2022-08-04T10:09:53.514Z,95072.94
2022-08-04T10:12:51.074Z,95065.16
2022-08-04T10:15:45.620Z,95057.19
2022-08-04T10:18:56.141Z,95060.56
2022-08-04T10:21:59.319Z,95066.25
2022-08-04T10:25:04.908Z,95049.88
2022-08-04T10:27:59.297Z,95059.75
2022-08-04T10:30:28.584Z,95057.38
2022-08-04T10:33:12.630Z,95059.44
2022-08-04T10:35:54.409Z,95058.81
2022-08-04T10:38:31.148Z,95048.94
2022-08-04T10:41:13.734Z,95058.00
2022-08-04T10:44:02.234Z,95054.66
2022-08-04T10:46:57.774Z,95050.19
2022-08-04T10:49:38.432Z,95045.72
2022-08-04T10:52:18.053Z,95047.00
2022-08-04T10:55:12.755Z,95051.44
2022-08-04T10:57:48.950Z,95041.22
2022-08-04T11:00:25.096Z,95044.22
2022-08-04T11:03:05.569Z,95037.50
2022-08-04T11:05:54.603Z,95046.63
2022-08-04T11:08:45.556Z,95040.06
2022-08-04T11:11:25.538Z,95032.56
2022-08-04T11:14:08.461Z,95040.50
2022-08-04T11:16:45.010Z,95043.38
2022-08-04T11:20:18.547Z,95031.41
2022-08-04T11:22:57.264Z,95036.34
2022-08-04T11:25:30.377Z,95034.56
2022-08-04T11:28:23.833Z,95036.94
2022-08-04T11:31:13.328Z,95019.41
2022-08-04T11:33:53.126Z,95024.00
2022-08-04T11:36:36.922Z,95021.91
2022-08-04T11:39:21.125Z,95021.69
2022-08-04T11:42:27.553Z,95022.63
2022-08-04T11:45:05.008Z,95023.28
2022-08-04T11:47:41.984Z,95020.69
2022-08-04T11:50:18.078Z,95017.78
2022-08-04T11:52:46.196Z,95016.53
2022-08-04T11:55:17.386Z,95021.91
2022-08-04T11:57:45.376Z,95017.59
2022-08-04T12:00:23.066Z,95019.94
2022-08-04T12:03:25.557Z,95010.31
2022-08-04T12:06:22.501Z,95004.56
2022-08-04T12:09:27.700Z,95009.00
2022-08-04T12:12:10.529Z,95011.03
2022-08-04T12:15:05.437Z,95001.56
2022-08-04T12:17:52.458Z,95011.91
2022-08-04T12:20:34.307Z,95001.94
2022-08-04T12:23:21.372Z,95005.28
2022-08-04T12:25:54.938Z,94997.53
2022-08-04T12:29:08.652Z,95005.25
2022-08-04T12:31:35.884Z,94998.16
2022-08-04T12:34:34.856Z,94995.06
2022-08-04T12:37:14.192Z,94995.00
2022-08-04T12:40:28.692Z,94995.31
2022-08-04T12:42:55.812Z,94992.56
2022-08-04T12:45:27.468Z,94987.28
2022-08-04T12:47:59.613Z,94973.00
2022-08-04T12:50:28.101Z,94978.22
2022-08-04T12:53:02.248Z,94974.31
2022-08-04T12:55:34.494Z,94973.84
2022-08-04T12:58:04.614Z,94974.78
2022-08-04T13:00:41.315Z,94967.34
2022-08-04T13:03:17.176Z,94973.16
2022-08-04T13:05:46.185Z,94967.88
2022-08-04T13:08:15.278Z,94966.47
2022-08-04T13:10:47.387Z,94962.19
2022-08-04T13:13:22.313Z,94955.84
2022-08-04T13:16:12.978Z,94946.25
2022-08-04T13:18:49.059Z,94955.09
2022-08-04T13:21:50.433Z,94957.63
2022-08-04T13:24:22.720Z,94943.00
2022-08-04T13:27:18.932Z,94956.47
2022-08-04T13:30:00.749Z,94949.00
2022-08-04T13:32:32.277Z,94932.72
2022-08-04T13:35:02.726Z,94939.19
2022-08-04T13:37:36.458Z,94936.97
2022-08-04T13:40:07.630Z,94932.75
2022-08-04T13:42:36.981Z,94934.47
2022-08-04T13:45:07.205Z,94936.97
2022-08-04T13:47:38.233Z,94936.22
2022-08-04T13:50:29.807Z,94932.69
2022-08-04T13:53:00.738Z,94923.72
2022-08-04T13:55:35.260Z,94922.47
2022-08-04T13:58:24.497Z,94925.63
2022-08-04T14:01:19.008Z,94921.53
2022-08-04T14:03:58.340Z,94930.06
2022-08-04T14:06:43.010Z,94927.81
2022-08-04T14:09:14.603Z,94917.25
2022-08-04T14:12:08.983Z,94924.25
2022-08-04T14:14:50.681Z,94917.53
2022-08-04T14:17:24.880Z,94915.50
2022-08-04T14:20:02.430Z,94915.69
2022-08-04T14:22:34.731Z,94910.25
2022-08-04T14:25:16.794Z,94914.59
2022-08-04T14:27:53.625Z,94906.69
2022-08-04T14:30:36.954Z,94902.75
2022-08-04T14:34:02.381Z,94912.22
2022-08-04T14:36:03.878Z,94900.84
2022-08-04T14:38:53.689Z,94901.28
2022-08-04T14:41:32.912Z,94903.22
2022-08-04T14:44:03.641Z,94904.94
2022-08-04T14:46:36.981Z,94896.50
2022-08-04T14:49:13.309Z,94900.72
2022-08-04T14:52:01.750Z,94896.97
2022-08-04T14:54:34.714Z,94895.53
2022-08-04T14:57:08.093Z,94894.09
2022-08-04T14:59:58.984Z,94890.75
2022-08-04T15:02:29.687Z,94881.78
2022-08-04T15:04:58.008Z,94884.72
2022-08-04T15:07:25.864Z,94881.41
2022-08-04T15:09:54.108Z,94885.00
2022-08-04T15:12:21.583Z,94884.38
2022-08-04T15:14:49.105Z,94883.25
2022-08-04T15:17:29.258Z,94876.31
2022-08-04T15:19:58.506Z,94878.63
2022-08-04T15:22:26.198Z,94886.88
2022-08-04T15:24:55.673Z,94879.34
2022-08-04T15:27:35.265Z,94879.13
2022-08-04T15:30:06.477Z,94886.28
2022-08-04T15:32:38.750Z,94877.81
2022-08-04T15:35:12.707Z,94873.00
2022-08-04T15:38:02.405Z,94872.53
2022-08-04T15:40:51.169Z,94874.41
2022-08-04T15:43:44.956Z,94872.41
2022-08-04T15:46:42.629Z,94860.28
2022-08-04T15:49:25.691Z,94861.41
2022-08-04T15:52:11.869Z,94867.41
2022-08-04T15:54:42.544Z,94865.34
2022-08-04T15:58:10.063Z,94864.84
2022-08-04T16:00:49.684Z,94857.72
2022-08-04T16:03:54.195Z,94861.31
2022-08-04T16:06:26.898Z,94852.13
2022-08-04T16:09:04.523Z,94850.59
2022-08-04T16:11:32.876Z,94854.56
2022-08-04T16:14:00.185Z,94857.03
2022-08-04T16:16:29.748Z,94854.47
2022-08-04T16:19:08.431Z,94848.72
2022-08-04T16:21:48.876Z,94856.47
2022-08-04T16:24:30.958Z,94857.00
2022-08-04T16:27:00.846Z,94851.75
2022-08-04T16:29:39.788Z,94856.59
2022-08-04T16:32:12.462Z,94858.03
2022-08-04T16:34:54.293Z,94854.63
2022-08-04T16:37:43.040Z,94859.03
2022-08-04T16:40:35.347Z,94855.41
2022-08-04T16:43:29.403Z,94852.06
2022-08-04T16:46:15.834Z,94850.03
2022-08-04T16:49:06.534Z,94850.47
2022-08-04T16:51:33.595Z,94850.13
2022-08-04T16:54:05.379Z,94853.00
2022-08-04T16:56:35.585Z,94849.66
2022-08-04T16:59:09.821Z,94844.69
2022-08-04T17:01:39.063Z,94852.97
2022-08-04T17:04:07.079Z,94851.59
2022-08-04T17:06:43.924Z,94847.41
2022-08-04T17:09:18.166Z,94856.34
2022-08-04T17:11:48.201Z,94849.75
2022-08-04T17:14:23.488Z,94849.59
2022-08-04T17:16:52.197Z,94847.50
2022-08-04T17:19:23.784Z,94849.38
2022-08-04T17:22:05.784Z,94846.16
2022-08-04T17:24:36.814Z,94854.38
2022-08-04T17:28:19.135Z,94853.09
2022-08-04T17:29:55.308Z,94851.91
2022-08-04T17:32:23.583Z,94845.47
2022-08-04T17:34:57.697Z,94849.03
2022-08-04T17:37:40.741Z,94851.41
2022-08-04T17:40:22.669Z,94848.34
2022-08-04T17:44:03.430Z,94857.97
2022-08-04T17:46:29.764Z,94853.19
2022-08-04T17:49:04.093Z,94865.66
2022-08-04T17:52:04.500Z,94854.72
2022-08-04T17:54:36.662Z,94856.75
2022-08-04T17:57:19.863Z,94860.16
2022-08-04T17:59:57.990Z,94865.78
2022-08-04T18:02:32.850Z,94864.91
2022-08-04T18:05:08.011Z,94858.81
2022-08-04T18:08:35.551Z,94869.00
2022-08-04T18:10:52.548Z,94869.56
2022-08-04T18:13:28.437Z,94871.25
2022-08-04T18:16:12.543Z,94880.72
2022-08-04T18:18:41.882Z,94880.38
2022-08-04T18:21:16.624Z,94878.00
2022-08-04T18:23:50.824Z,94878.41
2022-08-04T18:26:23.880Z,94879.50
2022-08-04T18:28:51.620Z,94885.63
2022-08-04T18:31:18.723Z,94887.16
2022-08-04T18:33:57.177Z,94886.34
2022-08-04T18:36:33.809Z,94885.72
2022-08-04T18:39:12.551Z,94878.91
2022-08-04T18:42:02.499Z,94887.38
2022-08-04T18:44:32.448Z,94892.59
2022-08-04T18:47:22.144Z,94885.94
2022-08-04T18:51:01.542Z,94898.09
2022-08-04T18:52:36.179Z,94893.94
2022-08-04T18:55:57.530Z,94898.03
2022-08-04T18:58:07.780Z,94903.38
2022-08-04T19:00:45.254Z,94908.50
2022-08-04T19:03:16.114Z,94904.34
2022-08-04T19:05:43.915Z,94913.66
2022-08-04T19:08:34.954Z,94919.00
2022-08-04T19:11:38.618Z,94917.94
2022-08-04T19:13:58.323Z,94913.84
2022-08-04T19:16:30.912Z,94908.28
2022-08-04T19:19:00.750Z,94917.66
2022-08-04T19:22:00.183Z,94916.84
2022-08-04T19:27:08.423Z,94921.88
2022-08-04T19:29:41.218Z,94921.53
2022-08-04T19:32:13.760Z,94920.03
2022-08-04T19:34:47.317Z,94924.59
2022-08-04T19:37:56.680Z,94926.09
2022-08-04T19:40:10.078Z,94921.38
2022-08-04T19:42:38.252Z,94924.19
2022-08-04T19:45:07.942Z,94931.09
2022-08-04T19:50:23.770Z,94928.59
2022-08-04T19:52:52.886Z,94935.69
2022-08-04T19:55:37.536Z,94932.59
2022-08-04T19:58:08.462Z,94936.84
2022-08-04T20:00:38.023Z,94930.56
2022-08-04T20:03:09.846Z,94935.31
2022-08-04T20:05:53.533Z,94930.63
2022-08-04T20:08:23.999Z,94922.88
2022-08-04T20:10:52.716Z,94936.94
2022-08-04T20:13:25.405Z,94942.72
2022-08-04T20:15:59.061Z,94934.88
2022-08-04T20:18:35.878Z,94936.28
2022-08-04T20:21:19.413Z,94935.06
2022-08-04T20:23:52.288Z,94939.78
2022-08-04T20:28:40.474Z,94941.16
2022-08-04T20:31:18.417Z,94933.28
2022-08-04T20:33:49.184Z,94940.88
2022-08-04T20:36:21.426Z,94948.81
2022-08-04T20:38:53.075Z,94944.72
2022-08-04T20:41:23.420Z,94940.59
2022-08-04T20:43:50.826Z,94942.38
2022-08-04T20:46:29.541Z,94931.50
2022-08-04T20:48:58.163Z,94932.66
2022-08-04T20:51:31.947Z,94925.75
2022-08-04T20:54:01.997Z,94933.34
2022-08-04T20:56:31.295Z,94933.94
2022-08-04T20:59:07.606Z,94932.91
2022-08-04T21:01:35.320Z,94939.16
2022-08-04T21:04:28.449Z,94938.94
2022-08-04T21:06:58.251Z,94933.91
2022-08-04T21:09:38.219Z,94933.72
2022-08-04T21:12:28.322Z,94928.19
2022-08-04T21:15:01.410Z,94933.22
2022-08-04T21:20:28.833Z,94937.41
2022-08-04T21:23:01.639Z,94925.19
2022-08-04T21:25:30.096Z,94924.53
2022-08-04T21:27:58.955Z,94924.88
2022-08-04T21:30:32.886Z,94926.53
2022-08-04T21:33:18.583Z,94923.63
2022-08-04T21:35:47.303Z,94922.31
2022-08-04T21:38:17.406Z,94920.72
2022-08-04T21:40:56.647Z,94921.78
2022-08-04T21:43:27.231Z,94916.41
2022-08-04T21:46:04.656Z,94919.69
2022-08-04T21:48:32.828Z,94913.00
2022-08-04T21:51:58.544Z,94912.78
2022-08-04T21:56:57.722Z,94920.88
2022-08-04T21:59:30.884Z,94911.50
2022-08-04T22:02:01.043Z,94912.59
2022-08-04T22:04:29.793Z,94919.28
2022-08-04T22:06:57.236Z,94908.81
2022-08-04T22:09:24.542Z,94913.13
2022-08-04T22:11:56.241Z,94909.41
2022-08-04T22:14:29.657Z,94911.81
2022-08-04T22:17:04.110Z,94912.34
2022-08-04T22:19:50.248Z,94912.09
2022-08-04T22:25:13.363Z,94897.44
2022-08-04T22:28:00.868Z,94906.84
2022-08-04T22:30:36.453Z,94915.81
2022-08-04T22:33:08.720Z,94908.69
2022-08-04T22:35:49.192Z,94910.09
2022-08-04T22:38:26.807Z,94914.69
2022-08-04T22:41:11.603Z,94905.09
2022-08-04T22:43:39.883Z,94908.63
2022-08-04T22:46:20.687Z,94908.38
2022-08-04T22:48:48.797Z,94903.88
2022-08-04T22:51:16.566Z,94903.38
2022-08-04T22:53:48.721Z,94899.59
2022-08-04T22:56:37.491Z,94897.50
2022-08-04T22:59:05.413Z,94897.75
2022-08-04T23:01:58.722Z,94894.03
2022-08-04T23:04:23.074Z,94898.63
2022-08-04T23:06:50.750Z,94900.78
2022-08-04T23:09:17.964Z,94902.13
2022-08-04T23:11:45.872Z,94895.47
2022-08-04T23:14:17.729Z,94895.22
2022-08-04T23:16:44.961Z,94892.56
2022-08-04T23:19:15.649Z,94883.75
2022-08-04T23:21:47.367Z,94895.56
2022-08-04T23:24:29.462Z,94888.63
2022-08-04T23:26:58.637Z,94896.69
2022-08-04T23:29:25.900Z,94890.28
2022-08-04T23:31:59.167Z,94894.53
2022-08-04T23:34:29.567Z,94889.75
2022-08-04T23:36:56.995Z,94888.16
2022-08-04T23:40:04.007Z,94880.41
2022-08-04T23:42:14.985Z,94883.91
2022-08-04T23:44:48.218Z,94876.16
2022-08-04T23:48:19.229Z,94875.34
2022-08-04T23:50:02.389Z,94880.44
2022-08-04T23:52:30.232Z,94887.47
2022-08-04T23:54:59.552Z,94871.13
2022-08-04T23:58:02.230Z,94870.09
